createdAt,value
2023-01-20T00:01:31.919Z,83.85
2023-01-20T00:03:58.770Z,83.78
2023-01-20T00:06:27.929Z,83.73
2023-01-20T00:08:56.314Z,83.37
2023-01-20T00:11:23.428Z,83.21
2023-01-20T00:13:54.849Z,82.84
2023-01-20T00:16:22.110Z,82.78
2023-01-20T00:18:49.072Z,82.64
2023-01-20T00:21:19.263Z,82.32
2023-01-20T00:23:47.145Z,82.14
2023-01-20T00:26:19.397Z,82.59
2023-01-20T00:28:46.680Z,82.70
2023-01-20T00:31:22.440Z,82.87
2023-01-20T00:33:50.768Z,83.23
2023-01-20T00:36:18.777Z,83.17
2023-01-20T00:38:46.631Z,83.81
2023-01-20T00:41:14.948Z,83.49
2023-01-20T00:43:41.705Z,83.54
2023-01-20T00:46:08.581Z,83.50
2023-01-20T00:48:36.017Z,84.15
2023-01-20T00:51:03.990Z,83.65
2023-01-20T00:53:30.676Z,83.67
2023-01-20T00:55:57.551Z,83.29
2023-01-20T00:58:24.344Z,83.10
2023-01-20T01:00:52.470Z,82.67
2023-01-20T01:03:19.376Z,82.54
2023-01-20T01:05:46.308Z,82.84
2023-01-20T01:08:13.338Z,82.49
2023-01-20T01:10:40.707Z,82.42
2023-01-20T01:13:09.025Z,82.39
2023-01-20T01:15:36.356Z,82.43
2023-01-20T01:18:03.676Z,82.24
2023-01-20T01:20:30.804Z,81.93
2023-01-20T01:22:57.579Z,82.08
2023-01-20T01:25:24.558Z,82.22
2023-01-20T01:27:51.277Z,81.83
2023-01-20T01:30:18.165Z,81.70
2023-01-20T01:32:44.977Z,81.47
2023-01-20T01:35:12.298Z,81.48
2023-01-20T01:37:39.259Z,81.23
2023-01-20T01:40:06.846Z,81.39
2023-01-20T01:42:33.629Z,81.88
2023-01-20T01:45:12.819Z,81.23
2023-01-20T01:47:40.697Z,81.42
2023-01-20T01:50:09.825Z,81.19
2023-01-20T01:52:36.650Z,81.38
2023-01-20T01:55:04.127Z,81.59
2023-01-20T01:57:31.719Z,81.93
2023-01-20T01:59:58.491Z,81.52
2023-01-20T02:02:25.389Z,81.32
2023-01-20T02:04:52.145Z,81.72
2023-01-20T02:07:20.900Z,81.60
2023-01-20T02:09:47.706Z,81.30
2023-01-20T02:12:16.177Z,81.40
2023-01-20T02:14:47.037Z,81.50
2023-01-20T02:17:30.622Z,81.34
2023-01-20T02:20:30.664Z,81.45
2023-01-20T02:23:00.014Z,81.52
2023-01-20T02:25:48.473Z,81.38
2023-01-20T02:28:42.987Z,81.87
2023-01-20T02:31:46.986Z,81.98
2023-01-20T02:34:28.562Z,81.71
2023-01-20T02:36:57.158Z,81.54
2023-01-20T02:39:32.415Z,81.66
2023-01-20T02:42:25.934Z,81.50
2023-01-20T02:44:56.924Z,81.42
2023-01-20T02:47:37.835Z,81.49
2023-01-20T02:50:18.081Z,80.67
2023-01-20T02:52:46.585Z,80.54
2023-01-20T02:55:17.640Z,80.80
2023-01-20T02:57:48.808Z,80.91
2023-01-20T03:00:25.878Z,80.54
2023-01-20T03:02:53.792Z,80.23
2023-01-20T03:05:24.022Z,80.57
2023-01-20T03:07:52.145Z,80.63
2023-01-20T03:10:20.623Z,80.36
2023-01-20T03:12:53.400Z,80.36
2023-01-20T03:15:24.132Z,80.40
2023-01-20T03:17:51.344Z,80.34
2023-01-20T03:20:18.315Z,80.38
2023-01-20T03:22:45.052Z,80.14
2023-01-20T03:25:14.047Z,79.86
2023-01-20T03:27:41.560Z,80.28
2023-01-20T03:30:17.677Z,80.45
2023-01-20T03:32:46.451Z,80.57
2023-01-20T03:35:16.464Z,80.54
2023-01-20T03:37:43.949Z,80.53
2023-01-20T03:40:11.449Z,80.28
2023-01-20T03:42:49.515Z,80.46
2023-01-20T03:45:33.414Z,80.53
2023-01-20T03:48:12.773Z,80.63
2023-01-20T03:50:41.191Z,80.58
2023-01-20T03:53:16.911Z,80.11
2023-01-20T03:55:48.167Z,79.89
2023-01-20T03:58:21.542Z,79.53
2023-01-20T04:00:49.440Z,79.21
2023-01-20T04:03:22.839Z,79.39
2023-01-20T04:05:50.039Z,79.49
2023-01-20T04:08:18.319Z,79.35
2023-01-20T04:10:47.136Z,79.50
2023-01-20T04:13:14.814Z,79.41
2023-01-20T04:15:44.498Z,79.46
2023-01-20T04:18:19.753Z,79.37
2023-01-20T04:20:49.543Z,79.95
2023-01-20T04:23:24.320Z,79.86
2023-01-20T04:25:51.092Z,80.00
2023-01-20T04:28:17.815Z,80.45
2023-01-20T04:30:44.818Z,79.93
2023-01-20T04:33:11.759Z,79.80
2023-01-20T04:35:38.448Z,80.00
2023-01-20T04:38:05.581Z,80.13
2023-01-20T04:40:32.624Z,80.46
2023-01-20T04:42:59.276Z,81.02
2023-01-20T04:45:26.062Z,80.62
2023-01-20T04:47:52.902Z,80.52
2023-01-20T04:50:19.729Z,80.30
2023-01-20T04:52:46.470Z,80.19
2023-01-20T04:55:13.997Z,80.32
2023-01-20T04:57:40.985Z,80.54
2023-01-20T05:00:08.668Z,80.45
2023-01-20T05:02:35.519Z,80.44
2023-01-20T05:05:02.338Z,80.60
2023-01-20T05:07:29.067Z,80.00
2023-01-20T05:09:55.766Z,80.66
2023-01-20T05:12:22.531Z,80.51
2023-01-20T05:14:49.280Z,80.55
2023-01-20T05:17:15.985Z,80.81
2023-01-20T05:19:43.683Z,80.90
2023-01-20T05:22:10.600Z,80.87
2023-01-20T05:24:37.258Z,80.98
2023-01-20T05:27:04.029Z,81.10
2023-01-20T05:29:30.839Z,81.27
2023-01-20T05:31:57.600Z,81.17
2023-01-20T05:34:24.441Z,81.34
2023-01-20T05:36:53.016Z,81.84
2023-01-20T05:39:20.117Z,81.57
2023-01-20T05:41:47.633Z,81.14
2023-01-20T05:44:15.255Z,80.43
2023-01-20T05:46:42.152Z,80.22
2023-01-20T05:49:11.804Z,80.16
2023-01-20T05:51:38.753Z,80.21
2023-01-20T05:54:05.651Z,80.06
2023-01-20T05:56:32.588Z,81.09
2023-01-20T05:58:59.375Z,80.89
2023-01-20T06:01:26.148Z,80.87
2023-01-20T06:03:52.884Z,81.23
2023-01-20T06:06:19.643Z,81.67
2023-01-20T06:08:46.444Z,82.47
2023-01-20T06:11:14.813Z,81.77
2023-01-20T06:13:41.582Z,81.75
2023-01-20T06:16:08.386Z,81.39
2023-01-20T06:18:35.415Z,81.32
2023-01-20T06:21:02.237Z,80.96
2023-01-20T06:23:29.843Z,81.60
2023-01-20T06:26:00.455Z,81.54
2023-01-20T06:28:27.623Z,81.38
2023-01-20T06:31:05.987Z,80.85
2023-01-20T06:33:33.217Z,80.66
2023-01-20T06:36:00.633Z,81.90
2023-01-20T06:38:30.016Z,83.45
2023-01-20T06:41:00.978Z,82.94
2023-01-20T06:43:31.724Z,83.06
2023-01-20T06:46:00.339Z,82.58
2023-01-20T06:48:27.188Z,83.23
2023-01-20T06:50:54.069Z,81.65
2023-01-20T06:53:20.864Z,80.43
2023-01-20T06:55:56.150Z,79.50
2023-01-20T06:58:24.952Z,79.41
2023-01-20T07:00:52.308Z,79.30
2023-01-20T07:03:19.600Z,79.18
2023-01-20T07:05:58.974Z,79.10
2023-01-20T07:08:25.870Z,78.43
2023-01-20T07:10:52.681Z,78.21
2023-01-20T07:13:19.487Z,78.31
2023-01-20T07:15:46.265Z,78.67
2023-01-20T07:18:13.311Z,78.44
2023-01-20T07:20:40.290Z,78.80
2023-01-20T07:23:07.856Z,79.24
2023-01-20T07:25:34.793Z,79.15
2023-01-20T07:28:01.533Z,79.07
2023-01-20T07:30:28.388Z,78.88
2023-01-20T07:32:55.234Z,78.78
2023-01-20T07:35:22.077Z,79.44
2023-01-20T07:37:48.852Z,79.68
2023-01-20T07:40:15.765Z,80.04
2023-01-20T07:42:42.661Z,80.25
2023-01-20T07:45:09.815Z,79.47
2023-01-20T07:47:36.509Z,79.54
2023-01-20T07:50:03.464Z,79.17
2023-01-20T07:52:30.224Z,79.26
2023-01-20T07:54:56.935Z,78.65
2023-01-20T07:57:23.744Z,78.57
2023-01-20T07:59:51.736Z,78.69
2023-01-20T08:02:18.486Z,78.78
2023-01-20T08:04:45.259Z,78.16
2023-01-20T08:07:12.287Z,78.29
2023-01-20T08:09:41.068Z,78.62
2023-01-20T08:12:08.024Z,77.95
2023-01-20T08:14:37.668Z,78.34
2023-01-20T08:17:04.630Z,78.37
2023-01-20T08:19:31.429Z,78.35
2023-01-20T08:21:58.211Z,78.88
2023-01-20T08:24:24.917Z,78.93
2023-01-20T08:26:52.039Z,79.03
2023-01-20T08:29:19.115Z,79.52
2023-01-20T08:31:45.950Z,79.13
2023-01-20T08:34:12.940Z,78.73
2023-01-20T08:36:41.018Z,78.64
2023-01-20T08:39:09.787Z,78.54
2023-01-20T08:41:38.813Z,78.73
2023-01-20T08:44:07.102Z,78.91
2023-01-20T08:46:34.575Z,78.44
2023-01-20T08:49:01.338Z,78.79
2023-01-20T08:51:30.506Z,78.71
2023-01-20T08:53:57.623Z,78.86
2023-01-20T08:56:24.400Z,79.23
2023-01-20T08:58:51.225Z,78.60
2023-01-20T09:01:23.887Z,78.77
2023-01-20T09:04:04.227Z,78.38
2023-01-20T09:06:39.581Z,78.40
2023-01-20T09:09:06.408Z,78.40
2023-01-20T09:11:33.513Z,78.08
2023-01-20T09:14:00.389Z,78.07
2023-01-20T09:16:28.052Z,78.57
2023-01-20T09:18:54.860Z,78.71
2023-01-20T09:21:21.980Z,78.30
2023-01-20T09:23:48.807Z,78.27
2023-01-20T09:26:26.093Z,78.46
2023-01-20T09:29:09.752Z,78.21
2023-01-20T09:31:44.491Z,78.20
2023-01-20T09:34:18.931Z,78.42
2023-01-20T09:36:46.304Z,78.08
2023-01-20T09:39:34.440Z,78.23
2023-01-20T09:42:30.883Z,78.46
2023-01-20T09:45:27.897Z,78.63
2023-01-20T09:48:14.288Z,77.77
2023-01-20T09:51:09.819Z,76.84
2023-01-20T09:53:50.949Z,76.84
2023-01-20T09:56:18.772Z,76.90
2023-01-20T09:58:57.652Z,75.92
2023-01-20T10:01:30.952Z,75.63
2023-01-20T10:04:01.906Z,75.31
2023-01-20T10:06:37.598Z,75.08
2023-01-20T10:09:08.802Z,74.62
2023-01-20T10:11:39.166Z,74.37
2023-01-20T10:14:26.586Z,74.02
2023-01-20T10:17:02.552Z,74.01
2023-01-20T10:19:37.788Z,73.63
2023-01-20T10:22:20.570Z,74.68
2023-01-20T10:24:59.665Z,73.38
2023-01-20T10:27:28.694Z,73.21
2023-01-20T10:30:09.033Z,72.56
2023-01-20T10:33:01.161Z,72.34
2023-01-20T10:35:29.546Z,72.05
2023-01-20T10:37:58.623Z,71.56
2023-01-20T10:40:35.342Z,71.87
2023-01-20T10:43:10.686Z,71.69
2023-01-20T10:46:01.883Z,70.83
2023-01-20T10:48:50.302Z,70.34
2023-01-20T10:51:35.321Z,70.54
2023-01-20T10:54:37.475Z,70.19
2023-01-20T10:57:05.052Z,69.52
2023-01-20T10:59:40.286Z,69.71
2023-01-20T11:02:30.772Z,69.81
2023-01-20T11:04:59.968Z,70.62
2023-01-20T11:07:27.718Z,69.63
2023-01-20T11:09:54.711Z,70.60
2023-01-20T11:12:27.512Z,70.83
2023-01-20T11:14:55.723Z,70.35
2023-01-20T11:17:22.485Z,70.71
2023-01-20T11:19:51.989Z,70.43
2023-01-20T11:22:26.744Z,70.65
2023-01-20T11:24:56.307Z,70.75
2023-01-20T11:27:27.371Z,71.56
2023-01-20T11:30:03.986Z,71.25
2023-01-20T11:32:32.151Z,70.56
2023-01-20T11:35:00.661Z,71.14
2023-01-20T11:37:36.464Z,70.56
2023-01-20T11:40:18.163Z,70.86
2023-01-20T11:42:47.119Z,71.23
2023-01-20T11:45:27.499Z,71.72
2023-01-20T11:48:06.405Z,71.96
2023-01-20T11:50:56.274Z,72.48
2023-01-20T11:53:31.828Z,72.35
2023-01-20T11:56:01.496Z,73.28
2023-01-20T11:58:32.326Z,72.91
2023-01-20T12:01:07.126Z,75.00
2023-01-20T12:04:10.571Z,72.92
2023-01-20T12:06:46.667Z,72.05
2023-01-20T12:09:16.080Z,73.31
2023-01-20T12:11:50.134Z,73.77
2023-01-20T12:14:20.077Z,73.02
2023-01-20T12:17:06.654Z,73.47
2023-01-20T12:19:42.512Z,74.65
2023-01-20T12:22:18.336Z,71.74
2023-01-20T12:25:08.684Z,73.00
2023-01-20T12:27:41.987Z,71.45
2023-01-20T12:30:32.317Z,69.36
2023-01-20T12:32:59.211Z,70.58
2023-01-20T12:35:29.585Z,71.74
2023-01-20T12:38:00.364Z,71.66
2023-01-20T12:40:30.036Z,72.86
2023-01-20T12:43:14.751Z,74.95
2023-01-20T12:45:45.666Z,74.35
2023-01-20T12:48:51.133Z,75.75
2023-01-20T12:51:34.997Z,76.50
2023-01-20T12:54:28.521Z,76.35
2023-01-20T12:57:12.953Z,76.67
2023-01-20T12:59:45.378Z,77.44
2023-01-20T13:02:46.343Z,77.66
2023-01-20T13:05:29.213Z,77.28
2023-01-20T13:08:36.613Z,77.97
2023-01-20T13:11:35.419Z,77.55
2023-01-20T13:14:23.363Z,78.08
2023-01-20T13:16:53.479Z,78.88
2023-01-20T13:19:35.414Z,78.40
2023-01-20T13:22:24.244Z,78.62
2023-01-20T13:24:53.331Z,79.04
2023-01-20T13:27:40.277Z,80.08
2023-01-20T13:30:08.336Z,79.92
2023-01-20T13:32:45.446Z,80.41
2023-01-20T13:35:18.365Z,80.71
2023-01-20T13:37:52.466Z,81.38
2023-01-20T13:40:37.717Z,80.92
2023-01-20T13:43:25.578Z,81.24
2023-01-20T13:46:07.692Z,81.32
2023-01-20T13:48:35.958Z,81.82
2023-01-20T13:51:21.533Z,81.77
2023-01-20T13:53:48.344Z,81.67
2023-01-20T13:56:28.708Z,81.36
2023-01-20T13:58:58.220Z,81.56
2023-01-20T14:01:26.104Z,81.20
2023-01-20T14:04:02.939Z,81.67
2023-01-20T14:06:30.061Z,81.69
2023-01-20T14:08:57.077Z,81.69
2023-01-20T14:11:25.873Z,81.94
2023-01-20T14:13:58.063Z,81.56
2023-01-20T14:16:30.083Z,81.58
2023-01-20T14:19:00.081Z,82.30
2023-01-20T14:21:29.163Z,82.69
2023-01-20T14:23:56.582Z,82.75
2023-01-20T14:26:23.371Z,82.76
2023-01-20T14:28:55.648Z,82.06
2023-01-20T14:31:36.590Z,82.17
2023-01-20T14:34:29.080Z,82.27
2023-01-20T14:36:57.979Z,81.87
2023-01-20T14:39:26.734Z,82.20
2023-01-20T14:41:57.730Z,82.61
2023-01-20T14:44:29.198Z,82.71
2023-01-20T14:46:57.887Z,82.80
2023-01-20T14:49:32.603Z,82.88
2023-01-20T14:52:00.077Z,83.33
2023-01-20T14:54:35.209Z,83.41
2023-01-20T14:57:25.710Z,82.97
2023-01-20T15:00:03.977Z,83.14
2023-01-20T15:02:34.578Z,82.99
2023-01-20T15:05:01.619Z,82.95
2023-01-20T15:07:28.559Z,82.91
2023-01-20T15:10:04.065Z,83.51
2023-01-20T15:12:30.788Z,83.65
2023-01-20T15:15:06.614Z,83.68
2023-01-20T15:17:33.389Z,83.93
2023-01-20T15:20:00.121Z,83.89
2023-01-20T15:22:27.404Z,84.11
2023-01-20T15:24:54.523Z,84.27
2023-01-20T15:27:28.803Z,84.10
2023-01-20T15:30:20.149Z,83.92
2023-01-20T15:32:47.771Z,84.48
2023-01-20T15:35:16.457Z,84.96
2023-01-20T15:37:43.939Z,84.60
2023-01-20T15:40:16.686Z,83.81
2023-01-20T15:42:43.831Z,84.28
2023-01-20T15:45:15.149Z,83.93
2023-01-20T15:47:42.911Z,84.61
2023-01-20T15:50:19.088Z,84.25
2023-01-20T15:52:46.100Z,84.02
2023-01-20T15:55:14.940Z,84.13
2023-01-20T15:57:42.305Z,84.27
2023-01-20T16:00:17.147Z,84.54
2023-01-20T16:02:44.155Z,84.66
2023-01-20T16:05:14.626Z,84.63
2023-01-20T16:07:44.245Z,85.31
2023-01-20T16:10:18.563Z,85.07
2023-01-20T16:12:46.322Z,85.22
2023-01-20T16:15:15.286Z,85.07
2023-01-20T16:17:42.250Z,85.44
2023-01-20T16:20:29.320Z,85.03
2023-01-20T16:22:57.401Z,85.42
2023-01-20T16:25:24.726Z,84.99
2023-01-20T16:27:53.518Z,85.39
2023-01-20T16:30:22.766Z,85.48
2023-01-20T16:32:50.160Z,87.56
2023-01-20T16:35:18.430Z,86.44
2023-01-20T16:37:47.465Z,85.37
2023-01-20T16:40:16.654Z,86.14
2023-01-20T16:42:43.761Z,86.22
2023-01-20T16:45:23.974Z,86.54
2023-01-20T16:47:50.964Z,86.29
2023-01-20T16:50:18.532Z,85.50
2023-01-20T16:52:45.971Z,85.80
2023-01-20T16:55:13.682Z,85.74
2023-01-20T16:57:40.502Z,85.52
2023-01-20T17:00:08.543Z,85.31
2023-01-20T17:02:35.390Z,85.87
2023-01-20T17:05:02.247Z,86.64
2023-01-20T17:07:28.967Z,85.56
2023-01-20T17:09:56.290Z,85.40
2023-01-20T17:12:23.296Z,85.37
2023-01-20T17:14:50.133Z,85.39
2023-01-20T17:17:16.945Z,87.02
2023-01-20T17:19:43.983Z,86.02
2023-01-20T17:22:10.831Z,85.93
2023-01-20T17:24:39.266Z,85.81
2023-01-20T17:27:07.019Z,85.19
2023-01-20T17:29:38.806Z,85.80
2023-01-20T17:32:05.591Z,85.66
2023-01-20T17:34:32.473Z,85.84
2023-01-20T17:36:59.970Z,85.73
2023-01-20T17:39:33.127Z,85.80
2023-01-20T17:41:59.891Z,86.20
2023-01-20T17:44:26.633Z,86.36
2023-01-20T17:46:53.614Z,86.47
2023-01-20T17:49:20.627Z,86.98
2023-01-20T17:51:47.596Z,85.98
2023-01-20T17:54:14.305Z,86.26
2023-01-20T17:56:41.201Z,86.04
2023-01-20T17:59:08.033Z,86.06
2023-01-20T18:01:35.054Z,86.16
2023-01-20T18:04:04.333Z,86.68
2023-01-20T18:06:34.935Z,86.22
2023-01-20T18:09:02.646Z,86.12
2023-01-20T18:11:32.086Z,86.22
2023-01-20T18:14:00.389Z,86.62
2023-01-20T18:16:30.575Z,86.68
2023-01-20T18:19:00.839Z,86.31
2023-01-20T18:21:33.183Z,86.30
2023-01-20T18:24:01.163Z,85.76
2023-01-20T18:26:30.912Z,86.83
2023-01-20T18:29:02.432Z,86.39
2023-01-20T18:31:31.862Z,85.65
2023-01-20T18:34:01.116Z,85.69
2023-01-20T18:36:33.694Z,86.32
2023-01-20T18:39:08.992Z,86.22
2023-01-20T18:41:37.829Z,86.20
2023-01-20T18:44:05.464Z,85.66
2023-01-20T18:46:32.721Z,85.44
2023-01-20T18:48:59.852Z,85.62
2023-01-20T18:51:28.958Z,85.49
2023-01-20T18:54:13.059Z,85.32
2023-01-20T18:56:40.287Z,85.11
2023-01-20T18:59:07.892Z,84.95
2023-01-20T19:01:37.964Z,85.19
2023-01-20T19:04:06.361Z,85.25
2023-01-20T19:06:36.895Z,85.19
2023-01-20T19:09:04.440Z,84.96
2023-01-20T19:11:34.373Z,85.05
2023-01-20T19:14:01.659Z,84.88
2023-01-20T19:16:33.212Z,84.49
2023-01-20T19:19:02.258Z,84.75
2023-01-20T19:21:33.628Z,84.53
2023-01-20T19:24:05.825Z,84.29
2023-01-20T19:26:35.817Z,84.56
2023-01-20T19:29:06.324Z,84.80
2023-01-20T19:31:35.998Z,84.03
2023-01-20T19:34:03.173Z,84.16
2023-01-20T19:36:30.322Z,83.92
2023-01-20T19:38:57.911Z,84.24
2023-01-20T19:41:29.645Z,83.99
2023-01-20T19:43:58.092Z,84.17
2023-01-20T19:46:27.167Z,84.09
2023-01-20T19:48:56.006Z,83.39
2023-01-20T19:51:24.028Z,83.63
2023-01-20T19:53:58.054Z,83.90
2023-01-20T19:56:27.366Z,84.26
2023-01-20T19:58:55.230Z,84.43
2023-01-20T20:01:24.853Z,84.60
2023-01-20T20:03:52.872Z,84.57
2023-01-20T20:06:49.108Z,84.78
2023-01-20T20:09:18.631Z,84.80
2023-01-20T20:11:46.878Z,84.62
2023-01-20T20:14:16.134Z,84.73
2023-01-20T20:16:43.565Z,85.08
2023-01-20T20:19:14.143Z,85.26
2023-01-20T20:21:41.228Z,85.45
2023-01-20T20:24:10.562Z,85.43
2023-01-20T20:26:37.765Z,85.65
2023-01-20T20:29:06.801Z,85.21
2023-01-20T20:31:35.655Z,85.01
2023-01-20T20:34:03.304Z,85.28
2023-01-20T20:36:31.025Z,85.41
2023-01-20T20:38:59.182Z,84.69
2023-01-20T20:41:28.884Z,85.07
2023-01-20T20:43:56.525Z,84.90
2023-01-20T20:46:23.656Z,85.31
2023-01-20T20:48:54.531Z,85.20
2023-01-20T20:51:23.728Z,84.73
2023-01-20T20:53:56.273Z,85.37
2023-01-20T20:56:23.876Z,85.11
2023-01-20T20:59:01.033Z,85.49
2023-01-20T21:01:30.992Z,84.82
2023-01-20T21:04:00.245Z,84.95
2023-01-20T21:06:27.483Z,85.19
2023-01-20T21:08:54.549Z,84.89
2023-01-20T21:11:21.774Z,85.02
2023-01-20T21:13:51.685Z,84.89
2023-01-20T21:16:22.067Z,85.08
2023-01-20T21:18:50.323Z,84.84
2023-01-20T21:21:19.235Z,84.46
2023-01-20T21:23:54.190Z,84.25
2023-01-20T21:26:21.445Z,84.91
2023-01-20T21:28:51.249Z,84.99
2023-01-20T21:31:21.369Z,84.99
2023-01-20T21:33:53.504Z,84.72
2023-01-20T21:36:21.513Z,85.47
2023-01-20T21:38:48.440Z,84.79
2023-01-20T21:41:15.649Z,84.50
2023-01-20T21:44:03.003Z,84.39
2023-01-20T21:46:38.264Z,84.68
2023-01-20T21:49:24.775Z,85.09
2023-01-20T21:52:10.122Z,84.75
2023-01-20T21:54:39.396Z,85.05
2023-01-20T21:57:06.171Z,84.55
2023-01-20T21:59:32.887Z,84.77
2023-01-20T22:01:59.785Z,85.18
2023-01-20T22:04:26.603Z,85.23
2023-01-20T22:06:53.348Z,85.38
2023-01-20T22:09:20.149Z,84.73
2023-01-20T22:11:46.928Z,84.61
2023-01-20T22:14:13.685Z,85.20
2023-01-20T22:16:40.641Z,85.44
2023-01-20T22:19:07.495Z,85.33
2023-01-20T22:21:34.307Z,85.35
2023-01-20T22:24:02.810Z,85.53
2023-01-20T22:26:29.718Z,84.97
2023-01-20T22:28:56.754Z,84.57
2023-01-20T22:31:24.073Z,84.66
2023-01-20T22:33:54.909Z,84.34
2023-01-20T22:36:22.645Z,84.33
2023-01-20T22:38:50.655Z,84.75
2023-01-20T22:41:18.442Z,84.88
2023-01-20T22:43:45.246Z,84.53
2023-01-20T22:46:13.695Z,84.63
2023-01-20T22:48:41.202Z,84.68
2023-01-20T22:51:10.703Z,85.02
2023-01-20T22:53:38.295Z,84.89
2023-01-20T22:56:07.127Z,84.94
2023-01-20T22:58:34.267Z,84.32
2023-01-20T23:01:01.356Z,84.82
2023-01-20T23:03:28.298Z,84.79
2023-01-20T23:05:57.209Z,84.51
2023-01-20T23:08:27.379Z,84.51
2023-01-20T23:11:00.196Z,84.85
2023-01-20T23:13:28.951Z,84.97
2023-01-20T23:15:56.297Z,85.01
2023-01-20T23:18:23.711Z,84.70
2023-01-20T23:20:54.272Z,84.79
2023-01-20T23:23:21.605Z,84.88
2023-01-20T23:25:48.324Z,84.75
2023-01-20T23:28:15.933Z,84.42
2023-01-20T23:30:43.616Z,84.63
2023-01-20T23:33:10.489Z,84.44
2023-01-20T23:35:39.055Z,84.15
2023-01-20T23:38:07.089Z,84.13
2023-01-20T23:40:34.922Z,83.91
2023-01-20T23:43:01.663Z,84.71
2023-01-20T23:45:28.827Z,84.29
2023-01-20T23:47:55.657Z,83.94
2023-01-20T23:50:22.495Z,83.72
2023-01-20T23:52:49.206Z,83.97
2023-01-20T23:55:16.028Z,83.89
2023-01-20T23:57:42.814Z,84.06
